sensor_id;sensor_type;location;lat;lon;timestamp;pressure;altitude;pressure_sealevel;temperature;humidity
50933;BME280;36921;49.006;9.292;2022-10-16T00:01:37;98602.66;;;15.85;100.00
50933;BME280;36921;49.006;9.292;2022-10-16T00:04:03;98599.44;;;15.88;100.00
50933;BME280;36921;49.006;9.292;2022-10-16T00:06:29;98605.13;;;15.87;100.00
50933;BME280;36921;49.006;9.292;2022-10-16T00:08:55;98601.97;;;15.78;100.00
50933;BME280;36921;49.006;9.292;2022-10-16T00:11:32;98602.91;;;15.84;100.00
50933;BME280;36921;49.006;9.292;2022-10-16T00:14:00;98602.91;;;15.84;100.00
50933;BME280;36921;49.006;9.292;2022-10-16T00:16:26;98586.00;;;15.70;100.00
50933;BME280;36921;49.006;9.292;2022-10-16T00:18:52;98605.19;;;15.75;100.00
50933;BME280;36921;49.006;9.292;2022-10-16T00:21:20;98601.09;;;15.89;100.00
50933;BME280;36921;49.006;9.292;2022-10-16T00:23:46;98583.91;;;15.89;100.00
50933;BME280;36921;49.006;9.292;2022-10-16T00:26:14;98588.53;;;15.88;100.00
50933;BME280;36921;49.006;9.292;2022-10-16T00:28:40;98573.78;;;15.72;100.00
50933;BME280;36921;49.006;9.292;2022-10-16T00:31:08;98581.78;;;15.91;100.00
50933;BME280;36921;49.006;9.292;2022-10-16T00:33:35;98577.38;;;15.90;100.00
50933;BME280;36921;49.006;9.292;2022-10-16T00:36:02;98587.72;;;15.88;100.00
50933;BME280;36921;49.006;9.292;2022-10-16T00:38:28;98591.88;;;15.78;100.00
50933;BME280;36921;49.006;9.292;2022-10-16T00:40:53;98584.53;;;15.79;100.00
50933;BME280;36921;49.006;9.292;2022-10-16T00:46:08;98590.13;;;15.72;100.00
50933;BME280;36921;49.006;9.292;2022-10-16T00:48:37;98600.06;;;15.78;100.00
50933;BME280;36921;49.006;9.292;2022-10-16T00:51:04;98599.63;;;15.70;100.00
50933;BME280;36921;49.006;9.292;2022-10-16T00:53:30;98607.16;;;15.80;100.00
50933;BME280;36921;49.006;9.292;2022-10-16T00:55:56;98618.81;;;15.75;100.00
50933;BME280;36921;49.006;9.292;2022-10-16T00:58:21;98604.00;;;15.71;100.00
50933;BME280;36921;49.006;9.292;2022-10-16T01:00:46;98596.28;;;15.68;100.00
50933;BME280;36921;49.006;9.292;2022-10-16T01:03:30;98611.97;;;15.72;100.00
50933;BME280;36921;49.006;9.292;2022-10-16T01:08:44;98601.28;;;15.71;100.00
50933;BME280;36921;49.006;9.292;2022-10-16T01:13:51;98615.94;;;15.82;100.00
50933;BME280;36921;49.006;9.292;2022-10-16T01:16:31;98610.97;;;15.90;100.00
50933;BME280;36921;49.006;9.292;2022-10-16T01:18:59;98611.19;;;15.89;100.00
50933;BME280;36921;49.006;9.292;2022-10-16T01:21:37;98620.09;;;15.84;100.00
50933;BME280;36921;49.006;9.292;2022-10-16T01:24:39;98619.59;;;15.87;100.00
50933;BME280;36921;49.006;9.292;2022-10-16T01:35:10;98597.97;;;15.97;100.00
50933;BME280;36921;49.006;9.292;2022-10-16T01:37:37;98603.53;;;16.03;100.00
50933;BME280;36921;49.006;9.292;2022-10-16T01:40:11;98611.03;;;15.95;100.00
50933;BME280;36921;49.006;9.292;2022-10-16T01:42:48;98617.81;;;15.93;100.00
50933;BME280;36921;49.006;9.292;2022-10-16T01:45:16;98612.69;;;15.96;100.00
50933;BME280;36921;49.006;9.292;2022-10-16T01:47:45;98608.06;;;15.97;100.00
50933;BME280;36921;49.006;9.292;2022-10-16T01:50:12;98614.53;;;16.08;100.00
50933;BME280;36921;49.006;9.292;2022-10-16T01:52:42;98618.94;;;16.09;100.00
50933;BME280;36921;49.006;9.292;2022-10-16T01:55:10;98611.59;;;16.09;100.00
50933;BME280;36921;49.006;9.292;2022-10-16T01:57:40;98608.75;;;16.04;100.00
50933;BME280;36921;49.006;9.292;2022-10-16T02:00:09;98617.03;;;16.09;100.00
50933;BME280;36921;49.006;9.292;2022-10-16T02:02:37;98602.22;;;16.05;100.00
50933;BME280;36921;49.006;9.292;2022-10-16T02:05:31;98602.81;;;16.07;100.00
50933;BME280;36921;49.006;9.292;2022-10-16T02:07:55;98594.72;;;16.12;100.00
50933;BME280;36921;49.006;9.292;2022-10-16T02:10:20;98580.06;;;16.02;100.00
50933;BME280;36921;49.006;9.292;2022-10-16T02:12:59;98588.75;;;15.98;100.00
50933;BME280;36921;49.006;9.292;2022-10-16T02:15:26;98595.63;;;15.89;100.00
50933;BME280;36921;49.006;9.292;2022-10-16T02:17:51;98594.38;;;15.80;100.00
50933;BME280;36921;49.006;9.292;2022-10-16T02:20:17;98597.13;;;15.80;100.00
50933;BME280;36921;49.006;9.292;2022-10-16T02:22:49;98601.88;;;15.73;100.00
50933;BME280;36921;49.006;9.292;2022-10-16T02:28:09;98613.94;;;15.65;100.00
50933;BME280;36921;49.006;9.292;2022-10-16T02:30:51;98610.53;;;15.70;100.00
50933;BME280;36921;49.006;9.292;2022-10-16T02:33:21;98606.13;;;15.69;100.00
50933;BME280;36921;49.006;9.292;2022-10-16T02:35:48;98605.78;;;15.65;100.00
50933;BME280;36921;49.006;9.292;2022-10-16T02:38:16;98609.47;;;15.71;100.00
50933;BME280;36921;49.006;9.292;2022-10-16T02:40:42;98608.25;;;15.67;100.00
50933;BME280;36921;49.006;9.292;2022-10-16T02:43:08;98604.22;;;15.81;100.00
50933;BME280;36921;49.006;9.292;2022-10-16T02:45:34;98601.47;;;15.81;100.00
50933;BME280;36921;49.006;9.292;2022-10-16T02:48:00;98606.94;;;15.81;100.00
50933;BME280;36921;49.006;9.292;2022-10-16T02:50:25;98600.41;;;15.82;100.00
50933;BME280;36921;49.006;9.292;2022-10-16T02:52:51;98600.41;;;15.82;100.00
50933;BME280;36921;49.006;9.292;2022-10-16T02:55:17;98612.78;;;15.73;100.00
50933;BME280;36921;49.006;9.292;2022-10-16T02:57:42;98604.47;;;15.68;100.00
50933;BME280;36921;49.006;9.292;2022-10-16T03:00:10;98600.53;;;15.64;100.00
50933;BME280;36921;49.006;9.292;2022-10-16T03:02:36;98612.53;;;15.63;100.00
50933;BME280;36921;49.006;9.292;2022-10-16T03:05:02;98615.97;;;15.58;100.00
50933;BME280;36921;49.006;9.292;2022-10-16T03:07:27;98614.22;;;15.52;100.00
50933;BME280;36921;49.006;9.292;2022-10-16T03:09:53;98626.44;;;15.49;100.00
50933;BME280;36921;49.006;9.292;2022-10-16T03:12:19;98628.44;;;15.42;100.00
50933;BME280;36921;49.006;9.292;2022-10-16T03:14:48;98633.56;;;15.39;100.00
50933;BME280;36921;49.006;9.292;2022-10-16T03:17:13;98625.16;;;15.28;100.00
50933;BME280;36921;49.006;9.292;2022-10-16T03:19:42;98639.72;;;15.34;100.00
50933;BME280;36921;49.006;9.292;2022-10-16T03:22:07;98606.78;;;15.36;100.00
50933;BME280;36921;49.006;9.292;2022-10-16T03:24:33;98619.44;;;15.42;100.00
50933;BME280;36921;49.006;9.292;2022-10-16T03:26:59;98610.41;;;15.53;100.00
50933;BME280;36921;49.006;9.292;2022-10-16T03:29:24;98619.78;;;15.45;100.00
50933;BME280;36921;49.006;9.292;2022-10-16T03:31:51;98614.81;;;15.42;100.00
50933;BME280;36921;49.006;9.292;2022-10-16T03:34:16;98619.34;;;15.37;100.00
50933;BME280;36921;49.006;9.292;2022-10-16T03:36:41;98624.19;;;15.34;100.00
50933;BME280;36921;49.006;9.292;2022-10-16T03:39:07;98630.81;;;15.27;100.00
50933;BME280;36921;49.006;9.292;2022-10-16T03:41:32;98630.72;;;15.10;100.00
50933;BME280;36921;49.006;9.292;2022-10-16T03:43:58;98618.66;;;14.94;100.00
50933;BME280;36921;49.006;9.292;2022-10-16T03:46:23;98644.81;;;14.95;100.00
50933;BME280;36921;49.006;9.292;2022-10-16T03:48:50;98645.75;;;14.89;100.00
50933;BME280;36921;49.006;9.292;2022-10-16T03:51:15;98643.72;;;14.84;100.00
50933;BME280;36921;49.006;9.292;2022-10-16T03:53:41;98640.88;;;14.79;100.00
50933;BME280;36921;49.006;9.292;2022-10-16T03:56:06;98633.78;;;14.78;100.00
50933;BME280;36921;49.006;9.292;2022-10-16T03:58:31;98632.25;;;14.71;100.00
50933;BME280;36921;49.006;9.292;2022-10-16T04:00:57;98635.31;;;14.74;100.00
50933;BME280;36921;49.006;9.292;2022-10-16T04:03:22;98631.16;;;14.72;100.00
50933;BME280;36921;49.006;9.292;2022-10-16T04:05:48;98632.97;;;14.78;100.00
50933;BME280;36921;49.006;9.292;2022-10-16T04:08:14;98626.91;;;14.76;100.00
50933;BME280;36921;49.006;9.292;2022-10-16T04:10:39;98636.25;;;14.80;100.00
50933;BME280;36921;49.006;9.292;2022-10-16T04:13:04;98636.25;;;14.80;100.00
50933;BME280;36921;49.006;9.292;2022-10-16T04:15:30;98638.03;;;14.74;100.00
50933;BME280;36921;49.006;9.292;2022-10-16T04:21:09;98639.81;;;14.68;100.00
50933;BME280;36921;49.006;9.292;2022-10-16T04:23:34;98651.84;;;14.61;100.00
50933;BME280;36921;49.006;9.292;2022-10-16T04:28:34;98654.84;;;14.59;100.00
50933;BME280;36921;49.006;9.292;2022-10-16T04:30:59;98653.09;;;14.46;100.00
50933;BME280;36921;49.006;9.292;2022-10-16T04:33:25;98652.50;;;14.44;100.00
50933;BME280;36921;49.006;9.292;2022-10-16T04:35:57;98654.00;;;14.40;100.00
50933;BME280;36921;49.006;9.292;2022-10-16T04:38:23;98659.25;;;14.42;100.00
50933;BME280;36921;49.006;9.292;2022-10-16T04:40:48;98659.72;;;14.39;100.00
50933;BME280;36921;49.006;9.292;2022-10-16T04:43:13;98669.06;;;14.43;100.00
50933;BME280;36921;49.006;9.292;2022-10-16T04:45:39;98669.88;;;14.43;100.00
50933;BME280;36921;49.006;9.292;2022-10-16T04:48:04;98681.16;;;14.47;100.00
50933;BME280;36921;49.006;9.292;2022-10-16T04:50:29;98679.03;;;14.49;100.00
50933;BME280;36921;49.006;9.292;2022-10-16T04:52:55;98678.19;;;14.48;100.00
50933;BME280;36921;49.006;9.292;2022-10-16T04:55:20;98680.06;;;14.48;100.00
50933;BME280;36921;49.006;9.292;2022-10-16T04:57:46;98678.44;;;14.47;100.00
50933;BME280;36921;49.006;9.292;2022-10-16T05:00:11;98684.78;;;14.59;100.00
50933;BME280;36921;49.006;9.292;2022-10-16T05:02:37;98684.78;;;14.59;100.00
50933;BME280;36921;49.006;9.292;2022-10-16T05:05:03;98689.75;;;14.62;100.00
50933;BME280;36921;49.006;9.292;2022-10-16T05:07:29;98691.41;;;14.63;100.00
50933;BME280;36921;49.006;9.292;2022-10-16T05:09:54;98687.53;;;14.71;100.00
50933;BME280;36921;49.006;9.292;2022-10-16T05:12:19;98684.19;;;14.69;100.00
50933;BME280;36921;49.006;9.292;2022-10-16T05:14:45;98680.97;;;14.60;100.00
50933;BME280;36921;49.006;9.292;2022-10-16T05:17:11;98689.75;;;14.62;100.00
50933;BME280;36921;49.006;9.292;2022-10-16T05:19:36;98685.59;;;14.60;100.00
50933;BME280;36921;49.006;9.292;2022-10-16T05:22:01;98682.75;;;14.55;100.00
50933;BME280;36921;49.006;9.292;2022-10-16T05:24:27;98687.78;;;14.51;100.00
50933;BME280;36921;49.006;9.292;2022-10-16T05:26:52;98687.63;;;14.46;100.00
50933;BME280;36921;49.006;9.292;2022-10-16T05:29:18;98688.72;;;14.45;100.00
50933;BME280;36921;49.006;9.292;2022-10-16T05:31:44;98695.44;;;14.42;100.00
50933;BME280;36921;49.006;9.292;2022-10-16T05:34:09;98688.56;;;14.40;100.00
50933;BME280;36921;49.006;9.292;2022-10-16T05:36:35;98691.75;;;14.37;100.00
50933;BME280;36921;49.006;9.292;2022-10-16T05:39:00;98688.44;;;14.35;100.00
50933;BME280;36921;49.006;9.292;2022-10-16T05:41:26;98693.88;;;14.35;100.00
50933;BME280;36921;49.006;9.292;2022-10-16T05:43:52;98697.81;;;14.39;100.00
50933;BME280;36921;49.006;9.292;2022-10-16T05:46:17;98694.47;;;14.37;100.00
50933;BME280;36921;49.006;9.292;2022-10-16T05:48:43;98696.75;;;14.40;100.00
50933;BME280;36921;49.006;9.292;2022-10-16T05:51:11;98688.69;;;14.63;100.00
50933;BME280;36921;49.006;9.292;2022-10-16T05:53:38;98693.59;;;14.85;100.00
50933;BME280;36921;49.006;9.292;2022-10-16T05:56:04;98691.69;;;14.74;100.00
50933;BME280;36921;49.006;9.292;2022-10-16T05:58:32;98697.00;;;14.68;100.00
50933;BME280;36921;49.006;9.292;2022-10-16T06:01:03;98699.81;;;14.62;100.00
50933;BME280;36921;49.006;9.292;2022-10-16T06:03:29;98705.84;;;14.64;100.00
50933;BME280;36921;49.006;9.292;2022-10-16T06:05:55;98700.03;;;14.60;100.00
50933;BME280;36921;49.006;9.292;2022-10-16T06:08:21;98715.63;;;14.53;100.00
50933;BME280;36921;49.006;9.292;2022-10-16T06:10:47;98718.56;;;14.52;100.00
50933;BME280;36921;49.006;9.292;2022-10-16T06:13:13;98722.50;;;14.56;100.00
50933;BME280;36921;49.006;9.292;2022-10-16T06:15:40;98716.47;;;14.54;100.00
50933;BME280;36921;49.006;9.292;2022-10-16T06:18:09;98722.97;;;14.53;100.00
50933;BME280;36921;49.006;9.292;2022-10-16T06:20:36;98722.50;;;14.56;100.00
50933;BME280;36921;49.006;9.292;2022-10-16T06:23:02;98724.56;;;14.60;100.00
50933;BME280;36921;49.006;9.292;2022-10-16T06:25:30;98728.28;;;14.78;100.00
50933;BME280;36921;49.006;9.292;2022-10-16T06:27:55;98718.69;;;14.87;100.00
50933;BME280;36921;49.006;9.292;2022-10-16T06:30:20;98719.53;;;14.87;100.00
50933;BME280;36921;49.006;9.292;2022-10-16T06:32:46;98719.09;;;15.02;100.00
50933;BME280;36921;49.006;9.292;2022-10-16T06:35:11;98716.16;;;15.04;100.00
50933;BME280;36921;49.006;9.292;2022-10-16T06:37:37;98709.88;;;15.15;100.00
50933;BME280;36921;49.006;9.292;2022-10-16T06:40:02;98712.34;;;15.17;100.00
50933;BME280;36921;49.006;9.292;2022-10-16T06:42:29;98721.59;;;15.16;100.00
50933;BME280;36921;49.006;9.292;2022-10-16T06:44:55;98716.19;;;15.27;100.00
50933;BME280;36921;49.006;9.292;2022-10-16T06:47:20;98719.84;;;15.33;100.00
50933;BME280;36921;49.006;9.292;2022-10-16T06:49:46;98728.84;;;15.33;100.00
50933;BME280;36921;49.006;9.292;2022-10-16T06:52:11;98730.75;;;15.33;100.00
50933;BME280;36921;49.006;9.292;2022-10-16T06:54:37;98738.09;;;15.44;100.00
50933;BME280;36921;49.006;9.292;2022-10-16T06:57:02;98750.41;;;15.59;100.00
50933;BME280;36921;49.006;9.292;2022-10-16T06:59:28;98756.00;;;15.64;100.00
50933;BME280;36921;49.006;9.292;2022-10-16T07:01:53;98756.38;;;15.67;100.00
50933;BME280;36921;49.006;9.292;2022-10-16T07:04:18;98759.25;;;15.72;100.00
50933;BME280;36921;49.006;9.292;2022-10-16T07:06:44;98763.97;;;15.77;100.00
50933;BME280;36921;49.006;9.292;2022-10-16T07:09:10;98763.38;;;15.98;100.00
50933;BME280;36921;49.006;9.292;2022-10-16T07:11:38;98763.66;;;16.26;100.00
50933;BME280;36921;49.006;9.292;2022-10-16T07:14:04;98740.31;;;16.18;100.00
50933;BME280;36921;49.006;9.292;2022-10-16T07:16:31;98766.72;;;16.29;100.00
50933;BME280;36921;49.006;9.292;2022-10-16T07:18:59;98766.91;;;16.11;100.00
50933;BME280;36921;49.006;9.292;2022-10-16T07:21:33;98775.69;;;16.13;100.00
50933;BME280;36921;49.006;9.292;2022-10-16T07:24:00;98780.78;;;16.09;100.00
50933;BME280;36921;49.006;9.292;2022-10-16T07:26:27;98768.94;;;16.04;100.00
50933;BME280;36921;49.006;9.292;2022-10-16T07:28:53;98759.34;;;15.89;100.00
50933;BME280;36921;49.006;9.292;2022-10-16T07:31:19;98783.31;;;15.99;100.00
50933;BME280;36921;49.006;9.292;2022-10-16T07:33:45;98775.78;;;16.18;100.00
50933;BME280;36921;49.006;9.292;2022-10-16T07:36:13;98788.63;;;16.17;100.00
50933;BME280;36921;49.006;9.292;2022-10-16T07:38:39;98780.31;;;16.12;100.00
50933;BME280;36921;49.006;9.292;2022-10-16T07:41:06;98789.66;;;16.28;100.00
50933;BME280;36921;49.006;9.292;2022-10-16T07:43:32;98776.72;;;16.24;100.00
50933;BME280;36921;49.006;9.292;2022-10-16T07:45:58;98776.38;;;16.20;100.00
50933;BME280;36921;49.006;9.292;2022-10-16T07:48:26;98786.00;;;16.11;100.00
50933;BME280;36921;49.006;9.292;2022-10-16T07:50:51;98781.16;;;16.01;100.00
50933;BME280;36921;49.006;9.292;2022-10-16T07:53:16;98788.31;;;15.90;100.00
50933;BME280;36921;49.006;9.292;2022-10-16T07:55:43;98811.88;;;16.08;100.00
50933;BME280;36921;49.006;9.292;2022-10-16T07:58:08;98793.47;;;16.15;100.00
50933;BME280;36921;49.006;9.292;2022-10-16T08:00:36;98774.03;;;16.12;100.00
50933;BME280;36921;49.006;9.292;2022-10-16T08:03:01;98807.34;;;16.26;100.00
50933;BME280;36921;49.006;9.292;2022-10-16T08:05:28;98802.94;;;16.36;100.00
50933;BME280;36921;49.006;9.292;2022-10-16T08:07:54;98805.47;;;16.67;100.00
50933;BME280;36921;49.006;9.292;2022-10-16T08:10:23;98815.38;;;16.84;100.00
50933;BME280;36921;49.006;9.292;2022-10-16T08:12:49;98818.78;;;17.20;100.00
50933;BME280;36921;49.006;9.292;2022-10-16T08:15:15;98823.13;;;17.33;100.00
50933;BME280;36921;49.006;9.292;2022-10-16T08:17:40;98811.53;;;17.60;100.00
50933;BME280;36921;49.006;9.292;2022-10-16T08:20:06;98817.75;;;17.72;100.00
50933;BME280;36921;49.006;9.292;2022-10-16T08:22:31;98808.00;;;18.15;100.00
50933;BME280;36921;49.006;9.292;2022-10-16T08:24:57;98823.41;;;18.82;100.00
50933;BME280;36921;49.006;9.292;2022-10-16T08:27:22;98795.94;;;19.04;100.00
50933;BME280;36921;49.006;9.292;2022-10-16T08:29:50;98779.53;;;19.68;100.00
50933;BME280;36921;49.006;9.292;2022-10-16T08:32:16;98819.78;;;20.38;100.00
50933;BME280;36921;49.006;9.292;2022-10-16T08:34:41;98818.19;;;22.38;100.00
50933;BME280;36921;49.006;9.292;2022-10-16T08:37:06;98791.38;;;24.35;92.04
50933;BME280;36921;49.006;9.292;2022-10-16T08:39:33;98809.88;;;23.81;90.48
50933;BME280;36921;49.006;9.292;2022-10-16T08:45:14;98829.78;;;23.00;95.79
50933;BME280;36921;49.006;9.292;2022-10-16T08:47:49;98839.91;;;22.44;100.00
50933;BME280;36921;49.006;9.292;2022-10-16T08:50:23;98843.56;;;21.53;100.00
50933;BME280;36921;49.006;9.292;2022-10-16T08:52:50;98821.09;;;20.83;100.00
50933;BME280;36921;49.006;9.292;2022-10-16T08:55:30;98836.78;;;20.87;100.00
50933;BME280;36921;49.006;9.292;2022-10-16T08:57:58;98826.34;;;20.31;100.00
50933;BME280;36921;49.006;9.292;2022-10-16T09:00:24;98833.47;;;20.27;100.00
50933;BME280;36921;49.006;9.292;2022-10-16T09:03:23;98839.97;;;20.11;100.00
50933;BME280;36921;49.006;9.292;2022-10-16T09:06:10;98838.88;;;19.75;100.00
50933;BME280;36921;49.006;9.292;2022-10-16T09:11:46;98836.44;;;19.51;100.00
50933;BME280;36921;49.006;9.292;2022-10-16T09:17:12;98852.13;;;19.01;100.00
50933;BME280;36921;49.006;9.292;2022-10-16T09:19:51;98838.44;;;19.01;100.00
50933;BME280;36921;49.006;9.292;2022-10-16T09:22:22;98859.13;;;19.14;100.00
50933;BME280;36921;49.006;9.292;2022-10-16T09:24:50;98844.31;;;19.10;100.00
50933;BME280;36921;49.006;9.292;2022-10-16T09:27:15;98840.75;;;19.15;100.00
50933;BME280;36921;49.006;9.292;2022-10-16T09:29:41;98855.59;;;19.46;100.00
50933;BME280;36921;49.006;9.292;2022-10-16T09:32:19;98866.44;;;20.27;100.00
50933;BME280;36921;49.006;9.292;2022-10-16T09:34:48;98877.00;;;21.09;100.00
50933;BME280;36921;49.006;9.292;2022-10-16T09:37:18;98851.28;;;21.81;100.00
50933;BME280;36921;49.006;9.292;2022-10-16T09:39:49;98871.72;;;25.40;92.94
50933;BME280;36921;49.006;9.292;2022-10-16T09:42:30;98866.69;;;27.15;71.10
50933;BME280;36921;49.006;9.292;2022-10-16T09:44:56;98877.28;;;28.30;62.14
50933;BME280;36921;49.006;9.292;2022-10-16T09:47:24;98873.56;;;28.35;60.96
50933;BME280;36921;49.006;9.292;2022-10-16T09:52:24;98883.22;;;28.69;53.95
50933;BME280;36921;49.006;9.292;2022-10-16T09:54:51;98883.09;;;29.14;53.92
50933;BME280;36921;49.006;9.292;2022-10-16T09:57:16;98853.63;;;29.65;52.85
50933;BME280;36921;49.006;9.292;2022-10-16T09:59:47;98871.63;;;30.20;50.42
50933;BME280;36921;49.006;9.292;2022-10-16T10:02:14;98866.84;;;30.85;48.09
50933;BME280;36921;49.006;9.292;2022-10-16T10:05:00;98875.00;;;32.94;44.33
50933;BME280;36921;49.006;9.292;2022-10-16T10:07:29;98862.78;;;32.29;45.09
50933;BME280;36921;49.006;9.292;2022-10-16T10:09:58;98867.25;;;30.57;46.67
50933;BME280;36921;49.006;9.292;2022-10-16T10:12:27;98881.78;;;30.80;47.28
50933;BME280;36921;49.006;9.292;2022-10-16T10:14:55;98875.06;;;30.72;47.94
50933;BME280;36921;49.006;9.292;2022-10-16T10:17:24;98869.84;;;30.06;48.27
50933;BME280;36921;49.006;9.292;2022-10-16T10:19:55;98887.88;;;29.57;50.09
50933;BME280;36921;49.006;9.292;2022-10-16T10:22:43;98887.00;;;29.13;50.75
50933;BME280;36921;49.006;9.292;2022-10-16T10:27:55;98886.94;;;28.55;51.66
50933;BME280;36921;49.006;9.292;2022-10-16T10:30:27;98890.94;;;27.73;54.91
50933;BME280;36921;49.006;9.292;2022-10-16T10:33:12;98888.13;;;26.40;59.39
50933;BME280;36921;49.006;9.292;2022-10-16T10:38:25;98894.38;;;24.99;68.42
50933;BME280;36921;49.006;9.292;2022-10-16T10:43:52;98906.66;;;24.11;73.65
50933;BME280;36921;49.006;9.292;2022-10-16T10:46:31;98899.16;;;23.82;76.06
50933;BME280;36921;49.006;9.292;2022-10-16T10:51:41;98885.97;;;23.74;79.88
50933;BME280;36921;49.006;9.292;2022-10-16T10:54:20;98898.06;;;23.78;83.78
50933;BME280;36921;49.006;9.292;2022-10-16T10:57:01;98908.72;;;23.95;79.43
50933;BME280;36921;49.006;9.292;2022-10-16T11:02:41;98906.00;;;23.90;86.12
50933;BME280;36921;49.006;9.292;2022-10-16T11:07:49;98905.50;;;24.17;79.98
50933;BME280;36921;49.006;9.292;2022-10-16T11:10:23;98896.13;;;24.42;77.59
50933;BME280;36921;49.006;9.292;2022-10-16T11:13:00;98879.50;;;24.47;74.83
50933;BME280;36921;49.006;9.292;2022-10-16T11:15:35;98885.94;;;24.66;73.46
50933;BME280;36921;49.006;9.292;2022-10-16T11:18:08;98874.28;;;24.45;71.52
50933;BME280;36921;49.006;9.292;2022-10-16T11:20:42;98895.47;;;24.79;70.69
50933;BME280;36921;49.006;9.292;2022-10-16T11:23:17;98890.78;;;24.99;70.83
50933;BME280;36921;49.006;9.292;2022-10-16T11:25:47;98878.31;;;25.63;66.45
50933;BME280;36921;49.006;9.292;2022-10-16T11:31:00;98865.75;;;26.50;62.99
50933;BME280;36921;49.006;9.292;2022-10-16T11:33:41;98874.84;;;28.60;55.92
50933;BME280;36921;49.006;9.292;2022-10-16T11:36:12;98873.41;;;30.33;50.75
50933;BME280;36921;49.006;9.292;2022-10-16T11:38:53;98874.06;;;31.66;47.09
50933;BME280;36921;49.006;9.292;2022-10-16T11:41:36;98867.69;;;31.78;45.91
50933;BME280;36921;49.006;9.292;2022-10-16T11:47:10;98875.00;;;33.31;41.92
50933;BME280;36921;49.006;9.292;2022-10-16T11:49:39;98872.06;;;32.66;43.00
50933;BME280;36921;49.006;9.292;2022-10-16T11:52:28;98884.31;;;32.49;42.40
50933;BME280;36921;49.006;9.292;2022-10-16T11:55:16;98877.41;;;32.47;42.49
50933;BME280;36921;49.006;9.292;2022-10-16T11:57:47;98885.50;;;32.27;43.23
50933;BME280;36921;49.006;9.292;2022-10-16T12:05:52;98878.84;;;33.27;40.78
50933;BME280;36921;49.006;9.292;2022-10-16T12:08:21;98879.34;;;31.80;43.22
50933;BME280;36921;49.006;9.292;2022-10-16T12:10:47;98885.16;;;31.03;43.08
50933;BME280;36921;49.006;9.292;2022-10-16T12:16:04;98859.03;;;31.29;43.18
50933;BME280;36921;49.006;9.292;2022-10-16T12:18:30;98870.13;;;31.16;43.44
50933;BME280;36921;49.006;9.292;2022-10-16T12:20:59;98874.19;;;32.57;41.91
50933;BME280;36921;49.006;9.292;2022-10-16T12:23:30;98882.25;;;32.71;41.01
50933;BME280;36921;49.006;9.292;2022-10-16T12:25:58;98864.53;;;34.25;40.86
50933;BME280;36921;49.006;9.292;2022-10-16T12:28:28;98846.75;;;35.32;37.37
50933;BME280;36921;49.006;9.292;2022-10-16T12:33:27;98870.88;;;30.96;42.70
50933;BME280;36921;49.006;9.292;2022-10-16T12:35:53;98878.22;;;30.71;43.62
50933;BME280;36921;49.006;9.292;2022-10-16T12:38:21;98861.34;;;29.85;44.71
50933;BME280;36921;49.006;9.292;2022-10-16T12:41:05;98859.38;;;30.59;45.91
50933;BME280;36921;49.006;9.292;2022-10-16T12:43:41;98841.13;;;33.00;42.50
50933;BME280;36921;49.006;9.292;2022-10-16T12:48:39;98855.91;;;35.29;37.53
50933;BME280;36921;49.006;9.292;2022-10-16T12:51:22;98851.91;;;35.65;37.95
50933;BME280;36921;49.006;9.292;2022-10-16T12:54:27;98856.50;;;35.73;37.90
50933;BME280;36921;49.006;9.292;2022-10-16T12:57:24;98853.97;;;34.82;38.35
50933;BME280;36921;49.006;9.292;2022-10-16T13:11:14;98869.13;;;31.12;44.27
50933;BME280;36921;49.006;9.292;2022-10-16T13:16:53;98861.16;;;28.18;46.61
50933;BME280;36921;49.006;9.292;2022-10-16T13:19:38;98881.06;;;27.17;50.44
50933;BME280;36921;49.006;9.292;2022-10-16T13:22:23;98888.59;;;27.02;50.99
50933;BME280;36921;49.006;9.292;2022-10-16T13:25:15;98885.47;;;25.83;53.84
50933;BME280;36921;49.006;9.292;2022-10-16T13:27:54;98886.00;;;25.85;56.70
50933;BME280;36921;49.006;9.292;2022-10-16T13:30:53;98888.66;;;25.57;55.54
50933;BME280;36921;49.006;9.292;2022-10-16T13:33:39;98887.88;;;25.33;58.52
50933;BME280;36921;49.006;9.292;2022-10-16T13:36:05;98881.97;;;25.21;60.07
50933;BME280;36921;49.006;9.292;2022-10-16T13:38:35;98895.66;;;25.07;61.01
50933;BME280;36921;49.006;9.292;2022-10-16T13:41:02;98893.28;;;25.00;61.40
50933;BME280;36921;49.006;9.292;2022-10-16T13:46:05;98878.63;;;24.76;68.11
50933;BME280;36921;49.006;9.292;2022-10-16T13:48:32;98882.41;;;24.85;67.12
50933;BME280;36921;49.006;9.292;2022-10-16T13:53:36;98885.94;;;25.90;59.78
50933;BME280;36921;49.006;9.292;2022-10-16T13:56:04;98884.97;;;25.62;60.37
50933;BME280;36921;49.006;9.292;2022-10-16T13:58:30;98884.44;;;25.41;60.35
50933;BME280;36921;49.006;9.292;2022-10-16T14:00:58;98872.72;;;25.06;63.52
50933;BME280;36921;49.006;9.292;2022-10-16T14:03:25;98873.53;;;25.31;63.41
50933;BME280;36921;49.006;9.292;2022-10-16T14:05:53;98873.66;;;25.21;65.08
50933;BME280;36921;49.006;9.292;2022-10-16T14:08:21;98868.06;;;26.29;61.14
50933;BME280;36921;49.006;9.292;2022-10-16T14:10:50;98876.88;;;27.19;58.13
50933;BME280;36921;49.006;9.292;2022-10-16T14:13:26;98880.06;;;26.99;57.49
50933;BME280;36921;49.006;9.292;2022-10-16T14:15:53;98879.88;;;26.35;60.48
50933;BME280;36921;49.006;9.292;2022-10-16T14:18:23;98866.56;;;26.51;59.70
50933;BME280;36921;49.006;9.292;2022-10-16T14:20:50;98875.22;;;26.63;59.12
50933;BME280;36921;49.006;9.292;2022-10-16T14:23:31;98874.81;;;26.56;59.26
50933;BME280;36921;49.006;9.292;2022-10-16T14:28:36;98884.06;;;25.67;63.81
50933;BME280;36921;49.006;9.292;2022-10-16T14:31:22;98884.44;;;25.41;64.26
50933;BME280;36921;49.006;9.292;2022-10-16T14:33:48;98875.16;;;24.89;67.48
50933;BME280;36921;49.006;9.292;2022-10-16T14:36:14;98874.97;;;24.56;69.63
50933;BME280;36921;49.006;9.292;2022-10-16T14:41:24;98871.28;;;24.37;70.48